createdAt,value
2023-05-14T00:00:39.776Z,9.79
2023-05-14T00:03:08.726Z,9.70
2023-05-14T00:05:36.464Z,9.63
2023-05-14T00:08:03.901Z,9.61
2023-05-14T00:10:31.352Z,9.58
2023-05-14T00:13:02.202Z,9.60
2023-05-14T00:15:30.498Z,9.64
2023-05-14T00:17:58.904Z,9.67
2023-05-14T00:20:27.784Z,9.59
2023-05-14T00:22:55.415Z,9.59
2023-05-14T00:25:22.851Z,9.50
2023-05-14T00:27:50.335Z,9.51
2023-05-14T00:30:17.983Z,9.56
2023-05-14T00:32:46.025Z,9.51
2023-05-14T00:35:13.508Z,9.46
2023-05-14T00:37:42.347Z,9.46
2023-05-14T00:40:12.778Z,9.48
2023-05-14T00:42:40.514Z,9.49
2023-05-14T00:45:09.978Z,9.43
2023-05-14T00:47:40.639Z,9.46
2023-05-14T00:50:09.603Z,9.43
2023-05-14T00:52:38.973Z,9.25
2023-05-14T00:55:09.581Z,9.37
2023-05-14T00:57:41.147Z,9.27
2023-05-14T01:00:10.000Z,9.17
2023-05-14T01:02:37.927Z,9.37
2023-05-14T01:05:08.528Z,9.31
2023-05-14T01:07:47.501Z,9.37
2023-05-14T01:10:29.412Z,9.28
2023-05-14T01:13:09.387Z,9.27
2023-05-14T01:15:39.222Z,9.31
2023-05-14T01:18:10.048Z,9.34
2023-05-14T01:20:38.228Z,9.23
2023-05-14T01:23:07.267Z,9.34
2023-05-14T01:25:37.752Z,9.31
2023-05-14T01:28:12.525Z,9.34
2023-05-14T01:30:43.249Z,9.30
2023-05-14T01:33:14.490Z,9.29
2023-05-14T01:35:44.509Z,9.34
2023-05-14T01:38:16.371Z,9.38
2023-05-14T01:40:46.815Z,9.41
2023-05-14T01:43:15.899Z,9.44
2023-05-14T01:45:44.475Z,9.42
2023-05-14T01:48:11.877Z,9.45
2023-05-14T01:50:39.392Z,9.49
2023-05-14T01:53:06.933Z,9.53
2023-05-14T01:55:35.716Z,9.47
2023-05-14T01:58:03.188Z,9.45
2023-05-14T02:00:31.447Z,9.40
2023-05-14T02:02:59.445Z,9.13
2023-05-14T02:05:26.960Z,9.02
2023-05-14T02:07:54.457Z,9.04
2023-05-14T02:10:22.049Z,9.36
2023-05-14T02:12:50.967Z,9.49
2023-05-14T02:15:18.434Z,9.48
2023-05-14T02:17:45.953Z,9.53
2023-05-14T02:20:14.142Z,9.53
2023-05-14T02:22:42.184Z,9.53
2023-05-14T02:25:10.688Z,9.00
2023-05-14T02:27:38.247Z,9.18
2023-05-14T02:30:08.505Z,9.39
2023-05-14T02:32:36.204Z,9.60
2023-05-14T02:35:04.107Z,8.35
2023-05-14T02:37:31.598Z,8.19
2023-05-14T02:39:59.302Z,8.10
2023-05-14T02:42:26.911Z,8.01
2023-05-14T02:44:54.554Z,8.74
2023-05-14T02:47:23.386Z,8.69
2023-05-14T02:49:50.957Z,8.88
2023-05-14T02:52:18.384Z,9.13
2023-05-14T02:54:45.904Z,8.50
2023-05-14T02:57:13.517Z,8.16
2023-05-14T02:59:41.387Z,8.90
2023-05-14T03:02:09.308Z,9.27
2023-05-14T03:04:38.630Z,9.46
2023-05-14T03:07:06.558Z,9.53
2023-05-14T03:09:35.046Z,9.59
2023-05-14T03:12:04.686Z,9.60
2023-05-14T03:14:32.378Z,9.52
2023-05-14T03:16:59.923Z,9.61
2023-05-14T03:19:27.496Z,9.62
2023-05-14T03:21:56.292Z,9.64
2023-05-14T03:24:23.739Z,9.66
2023-05-14T03:26:51.261Z,9.64
2023-05-14T03:29:18.826Z,9.58
2023-05-14T03:31:46.289Z,9.67
2023-05-14T03:34:14.047Z,9.63
2023-05-14T03:36:41.541Z,9.67
2023-05-14T03:39:10.375Z,9.67
2023-05-14T03:41:38.174Z,9.72
2023-05-14T03:44:06.268Z,9.70
2023-05-14T03:46:33.917Z,9.63
2023-05-14T03:49:01.590Z,9.70
2023-05-14T03:51:29.159Z,9.73
2023-05-14T03:53:57.936Z,9.73
2023-05-14T03:56:27.111Z,9.74
2023-05-14T03:58:54.538Z,9.79
2023-05-14T04:01:22.001Z,9.79
2023-05-14T04:03:49.591Z,9.79
2023-05-14T04:06:17.104Z,9.81
2023-05-14T04:08:44.634Z,9.81
2023-05-14T04:11:12.140Z,9.81
2023-05-14T04:13:40.958Z,9.72
2023-05-14T04:16:08.526Z,9.59
2023-05-14T04:18:36.155Z,9.75
2023-05-14T04:21:03.903Z,9.82
2023-05-14T04:23:32.225Z,9.85
2023-05-14T04:26:00.001Z,9.86
2023-05-14T04:28:27.722Z,9.92
2023-05-14T04:30:56.689Z,9.88
2023-05-14T04:33:24.138Z,9.98
2023-05-14T04:35:52.105Z,9.90
2023-05-14T04:38:19.578Z,10.01
2023-05-14T04:40:47.001Z,10.08
2023-05-14T04:43:14.710Z,9.90
2023-05-14T04:45:43.055Z,10.00
2023-05-14T04:48:12.154Z,9.39
2023-05-14T04:50:39.601Z,9.12
2023-05-14T04:53:07.087Z,9.28
2023-05-14T04:55:34.554Z,9.33
2023-05-14T04:58:02.305Z,9.53
2023-05-14T05:00:30.454Z,9.78
2023-05-14T05:02:57.912Z,9.62
2023-05-14T05:05:26.871Z,9.96
2023-05-14T05:07:54.698Z,9.92
2023-05-14T05:10:22.434Z,10.47
2023-05-14T05:12:50.044Z,10.72
2023-05-14T05:15:17.579Z,10.38
2023-05-14T05:17:45.072Z,11.10
2023-05-14T05:20:13.795Z,11.59
2023-05-14T05:22:42.596Z,11.11
2023-05-14T05:25:11.998Z,11.57
2023-05-14T05:27:39.645Z,12.27
2023-05-14T05:30:08.543Z,11.48
2023-05-14T05:32:36.087Z,11.63
2023-05-14T05:35:03.984Z,12.10
2023-05-14T05:37:31.664Z,11.92
2023-05-14T05:40:00.632Z,11.99
2023-05-14T05:42:28.097Z,11.80
2023-05-14T05:44:56.173Z,11.87
2023-05-14T05:47:23.692Z,11.78
2023-05-14T05:49:51.203Z,11.68
2023-05-14T05:52:18.794Z,12.15
2023-05-14T05:54:46.303Z,11.71
2023-05-14T05:57:15.074Z,11.80
2023-05-14T05:59:42.555Z,11.69
2023-05-14T06:02:10.059Z,11.60
2023-05-14T06:04:37.674Z,11.96
2023-05-14T06:07:05.606Z,12.04
2023-05-14T06:09:33.075Z,11.96
2023-05-14T06:12:00.612Z,11.89
2023-05-14T06:14:29.486Z,11.94
2023-05-14T06:16:57.260Z,12.06
2023-05-14T06:19:24.861Z,12.03
2023-05-14T06:21:52.416Z,11.91
2023-05-14T06:24:19.972Z,11.76
2023-05-14T06:26:48.731Z,12.25
2023-05-14T06:29:16.212Z,12.24
2023-05-14T06:31:45.143Z,12.09
2023-05-14T06:34:12.641Z,12.23
2023-05-14T06:36:40.139Z,12.37
2023-05-14T06:39:07.640Z,12.53
2023-05-14T06:41:35.211Z,12.52
2023-05-14T06:44:02.634Z,12.76
2023-05-14T06:46:30.136Z,12.47
2023-05-14T06:48:59.614Z,12.03
2023-05-14T06:51:27.219Z,12.37
2023-05-14T06:53:55.681Z,12.33
2023-05-14T06:56:23.037Z,12.43
2023-05-14T06:58:50.944Z,12.35
2023-05-14T07:01:18.444Z,12.54
2023-05-14T07:03:45.976Z,12.57
2023-05-14T07:06:14.870Z,12.26
2023-05-14T07:08:45.798Z,12.37
2023-05-14T07:11:14.166Z,12.26
2023-05-14T07:13:42.072Z,12.32
2023-05-14T07:16:10.437Z,12.29
2023-05-14T07:18:38.064Z,12.32
2023-05-14T07:21:06.522Z,12.26
2023-05-14T07:23:36.461Z,12.80
2023-05-14T07:26:04.140Z,13.43
2023-05-14T07:28:31.665Z,13.09
2023-05-14T07:30:59.476Z,13.54
2023-05-14T07:33:27.501Z,13.44
2023-05-14T07:35:55.036Z,13.63
2023-05-14T07:38:22.648Z,13.65
2023-05-14T07:40:51.417Z,13.65
2023-05-14T07:43:18.886Z,13.46
2023-05-14T07:45:46.462Z,13.42
2023-05-14T07:48:14.107Z,13.11
2023-05-14T07:50:41.627Z,12.76
2023-05-14T07:53:09.172Z,12.94
2023-05-14T07:55:36.643Z,13.31
2023-05-14T07:58:05.514Z,13.04
2023-05-14T08:00:32.976Z,13.21
2023-05-14T08:03:00.935Z,13.26
2023-05-14T08:05:28.449Z,13.14
2023-05-14T08:07:55.913Z,13.51
2023-05-14T08:10:23.730Z,13.41
2023-05-14T08:12:51.395Z,13.45
2023-05-14T08:15:20.202Z,13.21
2023-05-14T08:17:47.656Z,13.12
2023-05-14T08:20:15.160Z,12.67
2023-05-14T08:22:42.645Z,12.77
2023-05-14T08:25:10.578Z,12.78
2023-05-14T08:27:38.169Z,12.87
2023-05-14T08:30:07.249Z,12.88
2023-05-14T08:32:38.216Z,12.87
2023-05-14T08:35:06.734Z,12.83
2023-05-14T08:37:34.051Z,12.79
2023-05-14T08:40:01.590Z,12.64
2023-05-14T08:42:29.993Z,12.62
2023-05-14T08:44:58.880Z,12.67
2023-05-14T08:47:26.925Z,12.59
2023-05-14T08:50:01.947Z,12.67
2023-05-14T08:52:29.718Z,12.64
2023-05-14T08:54:58.151Z,12.73
2023-05-14T08:57:26.437Z,12.84
2023-05-14T08:59:54.330Z,12.82
2023-05-14T09:02:24.657Z,12.69
2023-05-14T09:04:57.024Z,12.79
2023-05-14T09:07:24.771Z,12.87
2023-05-14T09:09:52.811Z,13.01
2023-05-14T09:12:20.717Z,12.83
2023-05-14T09:14:49.905Z,12.81
2023-05-14T09:17:17.678Z,12.71
2023-05-14T09:19:48.942Z,12.61
2023-05-14T09:22:18.779Z,12.76
2023-05-14T09:24:46.714Z,12.68
2023-05-14T09:27:20.143Z,12.67
2023-05-14T09:29:48.730Z,12.58
2023-05-14T09:32:16.211Z,12.61
2023-05-14T09:34:43.729Z,12.79
2023-05-14T09:37:11.267Z,12.79
2023-05-14T09:39:40.480Z,13.06
2023-05-14T09:42:08.450Z,13.10
2023-05-14T09:44:38.088Z,12.90
2023-05-14T09:47:06.567Z,12.96
2023-05-14T09:49:35.266Z,13.47
2023-05-14T09:52:03.753Z,13.35
2023-05-14T09:54:32.897Z,13.22
2023-05-14T09:57:01.768Z,13.39
2023-05-14T09:59:29.466Z,13.72
2023-05-14T10:01:59.151Z,13.86
2023-05-14T10:04:26.777Z,13.68
2023-05-14T10:06:54.762Z,13.69
2023-05-14T10:09:26.189Z,13.61
2023-05-14T10:11:57.428Z,13.63
2023-05-14T10:14:34.397Z,13.73
2023-05-14T10:17:02.734Z,14.00
2023-05-14T10:19:35.001Z,13.91
2023-05-14T10:22:06.067Z,14.65
2023-05-14T10:24:34.225Z,14.62
2023-05-14T10:27:02.124Z,14.28
2023-05-14T10:29:34.954Z,14.25
2023-05-14T10:32:06.238Z,14.30
2023-05-14T10:34:37.447Z,14.38
2023-05-14T10:37:07.123Z,14.62
2023-05-14T10:39:45.648Z,14.71
2023-05-14T10:42:14.240Z,14.26
2023-05-14T10:44:49.179Z,14.22
2023-05-14T10:47:17.835Z,14.97
2023-05-14T10:49:48.936Z,15.11
2023-05-14T10:52:19.145Z,14.64
2023-05-14T10:54:51.991Z,14.77
2023-05-14T10:57:20.273Z,14.24
2023-05-14T10:59:53.139Z,14.44
2023-05-14T11:02:23.075Z,14.47
2023-05-14T11:04:56.565Z,14.68
2023-05-14T11:07:28.150Z,14.53
2023-05-14T11:10:01.684Z,14.58
2023-05-14T11:12:29.461Z,14.41
2023-05-14T11:15:00.696Z,14.11
2023-05-14T11:17:29.404Z,14.17
2023-05-14T11:19:57.584Z,14.76
2023-05-14T11:22:25.645Z,15.15
2023-05-14T11:24:54.253Z,14.84
2023-05-14T11:27:22.904Z,15.22
2023-05-14T11:29:51.528Z,15.19
2023-05-14T11:32:21.249Z,15.19
2023-05-14T11:34:48.896Z,15.03
2023-05-14T11:37:17.555Z,15.04
2023-05-14T11:39:49.981Z,14.82
2023-05-14T11:42:19.364Z,14.50
2023-05-14T11:44:48.927Z,14.53
2023-05-14T11:47:18.144Z,14.63
2023-05-14T11:49:47.292Z,14.57
2023-05-14T11:52:16.050Z,14.82
2023-05-14T11:54:44.832Z,14.66
2023-05-14T11:57:13.963Z,14.90
2023-05-14T11:59:41.862Z,15.20
2023-05-14T12:02:11.593Z,14.88
2023-05-14T12:04:39.732Z,15.41
2023-05-14T12:07:13.107Z,15.62
2023-05-14T12:09:44.218Z,15.60
2023-05-14T12:12:13.604Z,15.62
2023-05-14T12:14:42.802Z,15.43
2023-05-14T12:17:15.273Z,15.53
2023-05-14T12:19:44.039Z,15.84
2023-05-14T12:22:15.669Z,15.46
2023-05-14T12:24:44.481Z,15.25
2023-05-14T12:27:11.984Z,15.00
2023-05-14T12:29:39.970Z,14.99
2023-05-14T12:32:11.026Z,15.06
2023-05-14T12:34:39.284Z,15.13
2023-05-14T12:37:07.108Z,14.89
2023-05-14T12:39:36.095Z,15.12
2023-05-14T12:42:03.690Z,15.08
2023-05-14T12:44:31.214Z,15.16
2023-05-14T12:46:58.782Z,15.18
2023-05-14T12:49:26.360Z,15.12
2023-05-14T12:52:07.736Z,15.28
2023-05-14T12:54:41.640Z,15.40
2023-05-14T12:57:10.288Z,15.57
2023-05-14T12:59:37.783Z,15.83
2023-05-14T13:02:05.310Z,15.66
2023-05-14T13:04:32.852Z,15.65
2023-05-14T13:07:00.552Z,15.61
2023-05-14T13:09:28.649Z,15.52
2023-05-14T13:11:57.504Z,15.33
2023-05-14T13:14:25.011Z,15.35
2023-05-14T13:16:52.642Z,15.62
2023-05-14T13:19:20.136Z,15.50
2023-05-14T13:21:47.704Z,15.90
2023-05-14T13:24:15.170Z,16.54
2023-05-14T13:26:44.442Z,15.79
2023-05-14T13:29:13.394Z,15.60
2023-05-14T13:31:41.241Z,15.41
2023-05-14T13:34:10.091Z,15.28
2023-05-14T13:36:39.628Z,15.49
2023-05-14T13:39:07.199Z,16.04
2023-05-14T13:41:35.650Z,16.13
2023-05-14T13:44:03.118Z,16.19
2023-05-14T13:46:32.060Z,16.48
2023-05-14T13:48:59.766Z,15.91
2023-05-14T13:51:27.317Z,15.87
2023-05-14T13:56:27.136Z,16.25
2023-05-14T13:58:54.645Z,16.64
2023-05-14T14:01:23.222Z,16.95
2023-05-14T14:03:52.284Z,16.64
2023-05-14T14:06:19.762Z,17.29
2023-05-14T14:08:47.184Z,17.64
2023-05-14T14:11:14.640Z,16.78
2023-05-14T14:13:43.726Z,16.53
2023-05-14T14:16:12.548Z,16.09
2023-05-14T14:18:40.058Z,16.38
2023-05-14T14:21:09.340Z,16.94
2023-05-14T14:23:36.909Z,16.69
2023-05-14T14:26:04.617Z,16.01
2023-05-14T14:28:32.128Z,15.86
2023-05-14T14:30:59.571Z,15.83
2023-05-14T14:33:27.252Z,15.85
2023-05-14T14:35:54.730Z,15.76
2023-05-14T14:38:23.536Z,15.80
2023-05-14T14:40:51.275Z,15.76
2023-05-14T14:43:18.790Z,15.82
2023-05-14T14:45:48.308Z,15.94
2023-05-14T14:48:24.433Z,16.08
2023-05-14T14:50:52.599Z,15.89
2023-05-14T14:53:20.128Z,15.96
2023-05-14T14:55:49.027Z,16.01
2023-05-14T14:58:16.593Z,15.75
2023-05-14T15:00:44.452Z,15.76
2023-05-14T15:03:12.464Z,15.95
2023-05-14T15:05:39.990Z,15.91
2023-05-14T15:08:07.549Z,15.89
2023-05-14T15:10:37.669Z,16.13
2023-05-14T15:13:07.589Z,16.45
2023-05-14T15:15:36.352Z,16.71
2023-05-14T15:18:04.226Z,16.77
2023-05-14T15:20:31.921Z,16.86
2023-05-14T15:22:59.435Z,16.51
2023-05-14T15:25:27.760Z,16.57
2023-05-14T15:27:55.379Z,16.31
2023-05-14T15:30:24.176Z,16.18
2023-05-14T15:32:51.777Z,16.06
2023-05-14T15:35:19.510Z,16.07
2023-05-14T15:37:46.997Z,16.12
2023-05-14T15:40:14.537Z,16.16
2023-05-14T15:42:43.701Z,16.26
2023-05-14T15:45:12.822Z,16.67
2023-05-14T15:47:42.041Z,16.54
2023-05-14T15:50:09.972Z,16.66
2023-05-14T15:52:39.019Z,16.77
2023-05-14T15:55:07.435Z,16.47
2023-05-14T15:57:35.098Z,16.45
2023-05-14T16:00:05.991Z,16.40
2023-05-14T16:02:33.550Z,16.85
2023-05-14T16:05:02.395Z,16.78
2023-05-14T16:07:29.898Z,16.51
2023-05-14T16:09:57.365Z,16.46
2023-05-14T16:12:24.807Z,16.43
2023-05-14T16:14:52.323Z,16.47
2023-05-14T16:17:19.776Z,16.38
2023-05-14T16:19:47.206Z,16.35
2023-05-14T16:22:16.120Z,16.52
2023-05-14T16:24:44.680Z,16.82
2023-05-14T16:27:12.437Z,16.82
2023-05-14T16:29:39.871Z,17.11
2023-05-14T16:32:07.806Z,16.96
2023-05-14T16:34:35.305Z,16.61
2023-05-14T16:37:02.785Z,16.67
2023-05-14T16:39:31.665Z,16.68
2023-05-14T16:41:59.158Z,16.51
2023-05-14T16:44:26.597Z,16.59
2023-05-14T16:46:54.046Z,16.57
2023-05-14T16:49:22.401Z,16.46
2023-05-14T16:51:49.947Z,16.49
2023-05-14T16:54:17.410Z,16.51
2023-05-14T16:56:47.943Z,16.49
2023-05-14T16:59:15.773Z,16.55
2023-05-14T17:01:43.787Z,16.54
2023-05-14T17:04:11.582Z,16.40
2023-05-14T17:06:39.130Z,16.38
2023-05-14T17:09:06.899Z,16.34
2023-05-14T17:11:34.366Z,16.34
2023-05-14T17:14:03.169Z,16.23
2023-05-14T17:16:30.660Z,16.20
2023-05-14T17:18:58.221Z,16.14
2023-05-14T17:21:25.856Z,16.05
2023-05-14T17:23:53.326Z,15.72
2023-05-14T17:26:21.129Z,15.68
2023-05-14T17:28:48.579Z,15.92
2023-05-14T17:31:17.402Z,15.90
2023-05-14T17:33:44.918Z,15.86
2023-05-14T17:36:12.428Z,15.75
2023-05-14T17:38:40.993Z,15.80
2023-05-14T17:41:08.474Z,15.81
2023-05-14T17:43:35.944Z,15.60
2023-05-14T17:46:03.605Z,15.63
2023-05-14T17:48:32.417Z,15.49
2023-05-14T17:50:59.926Z,15.50
2023-05-14T17:53:27.429Z,15.52
2023-05-14T17:55:54.958Z,15.48
2023-05-14T17:58:22.550Z,15.28
2023-05-14T18:00:50.024Z,15.18
2023-05-14T18:03:20.115Z,15.29
2023-05-14T18:05:49.119Z,15.27
2023-05-14T18:08:16.577Z,15.25
2023-05-14T18:10:46.882Z,15.34
2023-05-14T18:13:14.378Z,15.41
2023-05-14T18:15:41.967Z,15.29
2023-05-14T18:18:09.474Z,15.10
2023-05-14T18:20:37.174Z,15.09
2023-05-14T18:23:05.976Z,15.12
2023-05-14T18:25:33.449Z,15.07
2023-05-14T18:28:00.933Z,14.86
2023-05-14T18:30:28.399Z,14.99
2023-05-14T18:32:55.888Z,15.06
2023-05-14T18:35:23.409Z,15.05
2023-05-14T18:37:52.990Z,15.02
2023-05-14T18:40:22.060Z,15.03
2023-05-14T18:42:49.515Z,14.83
2023-05-14T18:45:17.194Z,14.87
2023-05-14T18:47:44.801Z,14.92
2023-05-14T18:50:12.492Z,14.94
2023-05-14T18:52:39.971Z,14.94
2023-05-14T18:55:08.263Z,14.85
2023-05-14T18:57:37.394Z,14.49
2023-05-14T19:00:06.120Z,14.43
2023-05-14T19:02:33.891Z,14.57
2023-05-14T19:05:01.492Z,14.20
2023-05-14T19:07:30.212Z,14.51
2023-05-14T19:09:57.715Z,14.36
2023-05-14T19:12:25.189Z,14.11
2023-05-14T19:14:53.961Z,13.86
2023-05-14T19:17:22.052Z,13.53
2023-05-14T19:19:49.599Z,13.79
2023-05-14T19:22:17.329Z,14.20
2023-05-14T19:24:44.788Z,14.32
2023-05-14T19:27:13.737Z,14.49
2023-05-14T19:29:41.164Z,14.52
2023-05-14T19:32:10.399Z,14.55
2023-05-14T19:34:37.960Z,14.52
2023-05-14T19:37:06.269Z,14.48
2023-05-14T19:39:33.567Z,14.46
2023-05-14T19:42:01.206Z,14.41
2023-05-14T19:44:30.699Z,14.32
2023-05-14T19:46:58.374Z,14.40
2023-05-14T19:49:27.315Z,14.43
2023-05-14T19:51:54.811Z,14.43
2023-05-14T19:54:22.284Z,14.42
2023-05-14T19:56:49.790Z,14.33
2023-05-14T19:59:17.242Z,14.36
2023-05-14T20:01:44.852Z,14.37
2023-05-14T20:04:13.934Z,14.27
2023-05-14T20:06:47.090Z,14.28
2023-05-14T20:09:15.381Z,14.27
2023-05-14T20:11:42.684Z,14.24
2023-05-14T20:14:10.222Z,14.17
2023-05-14T20:16:38.162Z,14.26
2023-05-14T20:19:05.783Z,13.99
2023-05-14T20:21:33.245Z,13.69
2023-05-14T20:24:02.216Z,13.92
2023-05-14T20:26:30.045Z,13.65
2023-05-14T20:28:57.530Z,14.04
2023-05-14T20:31:25.182Z,14.15
2023-05-14T20:33:52.753Z,14.11
2023-05-14T20:36:20.462Z,14.15
2023-05-14T20:38:48.271Z,14.13
2023-05-14T20:41:17.085Z,14.10
2023-05-14T20:43:44.646Z,14.16
2023-05-14T20:46:12.720Z,14.05
2023-05-14T20:48:40.206Z,14.05
2023-05-14T20:51:07.742Z,14.01
2023-05-14T20:53:35.349Z,14.05
2023-05-14T20:56:02.795Z,13.98
2023-05-14T20:58:31.602Z,13.96
2023-05-14T21:01:00.514Z,13.93
2023-05-14T21:03:28.261Z,13.90
2023-05-14T21:05:56.654Z,14.00
2023-05-14T21:08:24.025Z,13.91
2023-05-14T21:10:51.632Z,13.90
2023-05-14T21:13:19.068Z,13.63
2023-05-14T21:15:47.943Z,13.81
2023-05-14T21:18:15.620Z,13.94
2023-05-14T21:20:43.140Z,13.86
2023-05-14T21:23:10.650Z,13.90
2023-05-14T21:25:38.187Z,13.90
2023-05-14T21:28:05.880Z,13.80
2023-05-14T21:30:33.323Z,13.78
2023-05-14T21:33:02.190Z,13.34
2023-05-14T21:35:29.797Z,13.67
2023-05-14T21:37:57.301Z,13.69
2023-05-14T21:40:24.736Z,13.05
2023-05-14T21:42:52.220Z,13.61
2023-05-14T21:45:21.098Z,13.73
2023-05-14T21:47:49.737Z,13.73
2023-05-14T21:50:18.713Z,13.68
2023-05-14T21:52:46.600Z,13.72
2023-05-14T21:55:14.184Z,13.73
2023-05-14T21:57:41.707Z,13.39
2023-05-14T22:00:12.860Z,13.53
2023-05-14T22:02:40.569Z,13.44
2023-05-14T22:05:08.545Z,13.59
2023-05-14T22:07:37.346Z,13.63
2023-05-14T22:10:05.184Z,13.52
2023-05-14T22:12:32.623Z,13.52
2023-05-14T22:15:00.118Z,13.51
2023-05-14T22:17:27.813Z,13.54
2023-05-14T22:19:55.410Z,13.56
2023-05-14T22:22:25.905Z,13.59
2023-05-14T22:24:54.765Z,13.57
2023-05-14T22:27:24.964Z,13.57
2023-05-14T22:29:52.482Z,13.54
2023-05-14T22:32:19.989Z,13.48
2023-05-14T22:34:47.461Z,13.52
2023-05-14T22:37:15.545Z,13.55
2023-05-14T22:39:43.117Z,13.39
2023-05-14T22:42:11.993Z,13.45
2023-05-14T22:44:39.519Z,13.47
2023-05-14T22:47:07.220Z,13.47
2023-05-14T22:49:34.725Z,13.45
2023-05-14T22:52:02.220Z,13.42
2023-05-14T22:54:29.737Z,12.33
2023-05-14T22:56:57.193Z,12.69
2023-05-14T22:59:25.994Z,12.88
2023-05-14T23:01:53.472Z,13.27
2023-05-14T23:04:21.867Z,13.21
2023-05-14T23:06:49.285Z,13.24
2023-05-14T23:09:16.719Z,13.24
2023-05-14T23:11:44.283Z,13.13
2023-05-14T23:14:11.929Z,13.21
2023-05-14T23:16:40.844Z,13.00
2023-05-14T23:19:08.510Z,13.04
2023-05-14T23:21:36.254Z,12.91
2023-05-14T23:24:03.709Z,12.94
2023-05-14T23:26:31.278Z,13.00
2023-05-14T23:28:58.803Z,12.90
2023-05-14T23:31:26.274Z,12.84
2023-05-14T23:33:55.126Z,12.80
2023-05-14T23:36:22.972Z,12.89
2023-05-14T23:38:50.723Z,12.84
2023-05-14T23:41:18.169Z,12.85
2023-05-14T23:43:45.675Z,12.78
2023-05-14T23:46:13.369Z,12.77
2023-05-14T23:48:40.882Z,12.72
2023-05-14T23:51:09.657Z,12.68
2023-05-14T23:53:37.314Z,12.76
2023-05-14T23:56:04.970Z,12.58
2023-05-14T23:58:32.880Z,12.67
